createdAt,value
2018-03-31T00:01:13.407Z,14.57
2018-03-31T00:03:47.338Z,15.33
2018-03-31T00:06:22.701Z,16.52
2018-03-31T00:08:57.179Z,16.12
2018-03-31T00:11:31.271Z,16.17
2018-03-31T00:14:04.726Z,17.00
2018-03-31T00:16:39.013Z,17.20
2018-03-31T00:19:13.374Z,18.50
2018-03-31T00:21:47.650Z,16.80
2018-03-31T00:24:22.686Z,16.30
2018-03-31T00:26:57.215Z,16.67
2018-03-31T00:29:31.546Z,15.43
2018-03-31T00:32:05.660Z,18.80
2018-03-31T00:34:39.571Z,17.23
2018-03-31T00:37:13.518Z,19.97
2018-03-31T00:39:47.499Z,18.50
2018-03-31T00:42:22.850Z,19.37
2018-03-31T00:44:56.489Z,17.20
2018-03-31T00:47:30.635Z,19.12
2018-03-31T00:50:04.369Z,20.03
2018-03-31T00:52:38.637Z,19.23
2018-03-31T00:55:11.918Z,17.53
2018-03-31T00:57:46.530Z,17.80
2018-03-31T01:00:20.503Z,22.50
2018-03-31T01:02:54.389Z,19.85
2018-03-31T01:08:29.454Z,16.42
2018-03-31T01:11:03.038Z,19.57
2018-03-31T01:13:37.092Z,20.10
2018-03-31T01:16:10.607Z,19.40
2018-03-31T01:18:44.573Z,17.80
2018-03-31T01:21:18.534Z,19.50
2018-03-31T01:23:52.538Z,18.20
2018-03-31T01:26:25.938Z,20.83
2018-03-31T01:29:00.430Z,17.92
2018-03-31T01:31:33.941Z,22.07
2018-03-31T01:34:08.052Z,18.17
2018-03-31T01:36:42.021Z,17.87
2018-03-31T01:39:16.498Z,21.37
2018-03-31T01:41:50.550Z,18.83
2018-03-31T01:44:24.641Z,17.57
2018-03-31T01:46:58.214Z,20.10
2018-03-31T01:49:32.862Z,20.20
2018-03-31T01:52:06.642Z,19.95
2018-03-31T01:54:40.906Z,21.05
2018-03-31T01:57:14.673Z,20.73
2018-03-31T01:59:48.840Z,23.83
2018-03-31T02:02:22.978Z,22.63
2018-03-31T02:04:56.775Z,20.10
2018-03-31T02:07:30.902Z,20.58
2018-03-31T02:10:05.111Z,21.70
2018-03-31T02:12:39.147Z,20.10
2018-03-31T02:15:13.235Z,21.37
2018-03-31T02:17:47.574Z,18.40
2018-03-31T02:20:21.186Z,21.37
2018-03-31T02:22:55.730Z,21.90
2018-03-31T02:25:28.834Z,18.80
2018-03-31T02:28:02.890Z,18.60
2018-03-31T02:30:36.602Z,20.62
2018-03-31T02:33:10.277Z,21.80
2018-03-31T02:35:44.026Z,20.27
2018-03-31T02:38:18.030Z,21.37
2018-03-31T02:40:52.715Z,20.70
2018-03-31T02:43:27.131Z,21.73
2018-03-31T02:46:01.361Z,22.63
2018-03-31T02:48:35.603Z,21.00
2018-03-31T02:51:09.904Z,22.10
2018-03-31T02:53:44.015Z,18.23
2018-03-31T02:56:18.323Z,20.47
2018-03-31T02:58:52.674Z,15.20
2018-03-31T03:01:27.177Z,17.87
2018-03-31T03:04:00.930Z,21.20
2018-03-31T03:06:34.902Z,20.77
2018-03-31T03:09:08.879Z,21.70
2018-03-31T03:11:42.871Z,19.90
2018-03-31T03:14:17.122Z,21.70
2018-03-31T03:16:51.214Z,22.63
2018-03-31T03:19:25.112Z,19.77
2018-03-31T03:21:58.742Z,18.27
2018-03-31T03:24:32.978Z,20.80
2018-03-31T03:27:06.936Z,17.73
2018-03-31T03:29:40.319Z,22.10
2018-03-31T03:32:14.106Z,22.83
2018-03-31T03:34:48.017Z,20.03
2018-03-31T03:37:23.227Z,19.62
2018-03-31T03:39:56.996Z,20.80
2018-03-31T03:42:30.694Z,17.85
2018-03-31T03:45:04.979Z,18.77
2018-03-31T03:47:39.218Z,20.17
2018-03-31T03:50:13.110Z,22.13
2018-03-31T03:52:47.086Z,20.10
2018-03-31T03:55:21.447Z,17.13
2018-03-31T03:57:55.229Z,18.93
2018-03-31T04:00:29.039Z,21.73
2018-03-31T04:03:03.039Z,23.47
2018-03-31T04:05:42.230Z,21.02
2018-03-31T04:08:15.851Z,21.90
2018-03-31T04:10:50.028Z,22.17
2018-03-31T04:13:23.391Z,18.90
2018-03-31T04:15:57.170Z,20.57
2018-03-31T04:18:30.555Z,19.47
2018-03-31T04:21:04.941Z,26.80
2018-03-31T04:23:38.957Z,20.67
2018-03-31T04:26:13.319Z,19.70
2018-03-31T04:28:47.034Z,23.30
2018-03-31T04:31:21.258Z,21.40
2018-03-31T04:33:55.282Z,20.57
2018-03-31T04:36:29.437Z,20.80
2018-03-31T04:39:03.447Z,23.10
2018-03-31T04:41:37.503Z,21.67
2018-03-31T04:44:11.126Z,21.30
2018-03-31T04:46:44.853Z,19.93
2018-03-31T04:49:18.152Z,21.70
2018-03-31T04:51:52.046Z,20.10
2018-03-31T04:54:26.314Z,23.47
2018-03-31T04:57:00.083Z,22.67
2018-03-31T04:59:33.650Z,24.13
2018-03-31T05:02:07.373Z,20.53
2018-03-31T05:04:40.690Z,23.50
2018-03-31T05:07:14.324Z,24.80
2018-03-31T05:09:48.447Z,22.60
2018-03-31T05:12:23.424Z,20.88
2018-03-31T05:14:58.150Z,23.83
2018-03-31T05:17:32.771Z,21.33
2018-03-31T05:20:06.694Z,20.70
2018-03-31T05:22:40.914Z,25.57
2018-03-31T05:25:14.915Z,21.17
2018-03-31T05:27:49.067Z,24.15
2018-03-31T05:30:23.781Z,19.55
2018-03-31T05:32:58.375Z,22.93
2018-03-31T05:35:32.643Z,19.75
2018-03-31T05:38:06.413Z,20.30
2018-03-31T05:40:40.471Z,23.30
2018-03-31T05:43:13.985Z,22.73
2018-03-31T05:45:50.425Z,21.63
2018-03-31T05:48:24.494Z,21.30
2018-03-31T05:50:58.611Z,23.50
2018-03-31T05:53:32.847Z,21.13
2018-03-31T05:56:06.434Z,19.50
2018-03-31T05:58:40.710Z,17.58
2018-03-31T06:01:14.775Z,23.23
2018-03-31T06:03:48.542Z,26.57
2018-03-31T06:06:23.961Z,18.85
2018-03-31T06:08:57.841Z,23.80
2018-03-31T06:11:31.998Z,21.90
2018-03-31T06:14:06.407Z,22.23
2018-03-31T06:16:40.018Z,21.43
2018-03-31T06:19:13.625Z,25.80
2018-03-31T06:21:47.131Z,22.53
2018-03-31T06:24:20.758Z,23.10
2018-03-31T06:26:54.618Z,21.13
2018-03-31T06:29:28.323Z,21.05
2018-03-31T06:32:02.467Z,26.63
2018-03-31T06:34:36.759Z,20.00
2018-03-31T06:37:10.133Z,19.20
2018-03-31T06:39:44.130Z,19.37
2018-03-31T06:42:18.498Z,19.03
2018-03-31T06:44:52.616Z,18.93
2018-03-31T06:47:26.573Z,22.87
2018-03-31T06:50:00.650Z,24.87
2018-03-31T06:52:34.678Z,20.33
2018-03-31T06:55:08.646Z,20.97
2018-03-31T06:57:42.689Z,23.00
2018-03-31T07:00:16.714Z,19.27
2018-03-31T07:02:50.711Z,22.80
2018-03-31T07:05:24.955Z,23.77
2018-03-31T07:07:58.971Z,21.77
2018-03-31T07:10:33.123Z,23.77
2018-03-31T07:13:06.774Z,26.77
2018-03-31T07:15:40.762Z,39.13
2018-03-31T07:18:14.830Z,28.87
2018-03-31T07:20:48.722Z,31.70
2018-03-31T07:23:24.011Z,37.70
2018-03-31T07:25:57.674Z,31.63
2018-03-31T07:28:31.287Z,28.13
2018-03-31T07:31:05.018Z,29.97
2018-03-31T07:33:39.139Z,27.47
2018-03-31T07:36:13.143Z,28.10
2018-03-31T07:38:47.010Z,29.10
2018-03-31T07:41:20.556Z,26.40
2018-03-31T07:43:54.765Z,25.10
2018-03-31T07:46:29.065Z,30.97
2018-03-31T07:49:03.302Z,25.43
2018-03-31T07:51:37.482Z,26.40
2018-03-31T07:54:11.374Z,29.40
2018-03-31T07:56:46.021Z,31.93
2018-03-31T07:59:19.907Z,34.10
2018-03-31T08:01:54.023Z,24.33
2018-03-31T08:04:28.282Z,24.55
2018-03-31T08:07:02.147Z,26.10
2018-03-31T08:09:36.347Z,28.23
2018-03-31T08:12:10.183Z,26.50
2018-03-31T08:14:43.980Z,26.50
2018-03-31T08:17:18.167Z,31.20
2018-03-31T08:19:52.191Z,28.90
2018-03-31T08:22:26.309Z,25.33
2018-03-31T08:25:00.189Z,24.17
2018-03-31T08:27:35.017Z,25.55
2018-03-31T08:30:08.597Z,26.30
2018-03-31T08:32:42.195Z,27.87
2018-03-31T08:35:16.053Z,27.87
2018-03-31T08:37:50.070Z,27.87
2018-03-31T08:40:24.506Z,31.40
2018-03-31T08:42:58.358Z,28.10
2018-03-31T08:45:31.617Z,30.23
2018-03-31T08:48:05.492Z,29.73
2018-03-31T08:50:40.119Z,26.33
2018-03-31T08:53:13.622Z,27.07
2018-03-31T08:55:47.914Z,24.10
2018-03-31T08:58:22.210Z,26.43
2018-03-31T09:00:56.203Z,25.80
2018-03-31T09:03:30.452Z,25.20
2018-03-31T09:06:04.218Z,23.67
2018-03-31T09:08:38.445Z,28.60
2018-03-31T09:11:12.425Z,25.43
2018-03-31T09:13:46.631Z,27.00
2018-03-31T09:16:21.242Z,26.27
2018-03-31T09:18:55.264Z,25.60
2018-03-31T09:21:29.474Z,26.80
2018-03-31T09:24:03.506Z,25.20
2018-03-31T09:26:37.756Z,22.40
2018-03-31T09:29:12.027Z,26.33
2018-03-31T09:31:46.228Z,22.97
2018-03-31T09:34:20.330Z,20.60
2018-03-31T09:36:54.537Z,23.90
2018-03-31T09:39:28.510Z,22.03
2018-03-31T09:42:02.318Z,22.13
2018-03-31T09:44:36.354Z,24.80
2018-03-31T09:47:10.321Z,22.50
2018-03-31T09:49:44.304Z,21.83
2018-03-31T09:52:18.451Z,23.20
2018-03-31T09:54:52.562Z,21.63
2018-03-31T09:57:26.398Z,25.17
2018-03-31T10:00:00.296Z,25.90
2018-03-31T10:02:34.748Z,24.87
2018-03-31T10:05:09.139Z,29.80
2018-03-31T10:07:43.269Z,27.90
2018-03-31T10:10:17.386Z,31.20
2018-03-31T10:12:51.799Z,27.30
2018-03-31T10:15:25.437Z,29.57
2018-03-31T10:17:59.298Z,29.25
2018-03-31T10:20:33.441Z,27.45
2018-03-31T10:23:07.306Z,25.73
2018-03-31T10:25:41.822Z,23.08
2018-03-31T10:28:15.769Z,27.87
2018-03-31T10:30:49.604Z,27.53
2018-03-31T10:33:24.763Z,29.00
2018-03-31T10:35:58.969Z,28.47
2018-03-31T10:38:33.850Z,28.92
2018-03-31T10:41:07.433Z,27.65
2018-03-31T10:43:41.289Z,29.95
2018-03-31T10:46:14.970Z,26.83
2018-03-31T10:48:48.794Z,27.37
2018-03-31T10:51:22.643Z,28.90
2018-03-31T10:53:56.902Z,28.47
2018-03-31T10:56:31.024Z,26.27
2018-03-31T10:59:04.705Z,27.87
2018-03-31T11:01:38.149Z,27.48
2018-03-31T11:04:12.344Z,27.60
2018-03-31T11:06:46.118Z,27.83
2018-03-31T11:09:19.698Z,26.10
2018-03-31T11:11:53.210Z,26.07
2018-03-31T11:14:27.274Z,31.73
2018-03-31T11:17:01.161Z,28.03
2018-03-31T11:19:35.282Z,27.42
2018-03-31T11:22:09.774Z,27.93
2018-03-31T11:24:43.683Z,23.98
2018-03-31T11:27:17.750Z,27.67
2018-03-31T11:29:51.781Z,25.83
2018-03-31T11:32:25.652Z,27.37
2018-03-31T11:34:59.738Z,30.33
2018-03-31T11:37:33.434Z,25.40
2018-03-31T11:40:07.650Z,28.27
2018-03-31T11:42:41.640Z,27.33
2018-03-31T11:45:15.880Z,27.57
2018-03-31T11:47:49.781Z,29.70
2018-03-31T11:50:23.695Z,26.03
2018-03-31T11:52:57.678Z,24.80
2018-03-31T11:55:31.439Z,25.77
2018-03-31T11:58:04.907Z,25.67
2018-03-31T12:00:38.817Z,27.60
2018-03-31T12:03:12.827Z,25.20
2018-03-31T12:05:47.054Z,23.40
2018-03-31T12:08:20.753Z,26.90
2018-03-31T12:10:54.206Z,24.30
2018-03-31T12:13:28.310Z,24.00
2018-03-31T12:16:02.327Z,27.83
2018-03-31T12:18:35.990Z,26.73
2018-03-31T12:21:09.828Z,26.97
2018-03-31T12:23:44.074Z,23.70
2018-03-31T12:26:18.118Z,25.70
2018-03-31T12:28:52.627Z,21.60
2018-03-31T12:31:26.819Z,23.38
2018-03-31T12:34:00.938Z,24.80
2018-03-31T12:36:34.966Z,25.00
2018-03-31T12:39:08.967Z,25.30
2018-03-31T12:41:43.084Z,28.42
2018-03-31T12:44:16.994Z,31.10
2018-03-31T12:46:50.847Z,30.90
2018-03-31T12:49:25.019Z,30.90
2018-03-31T12:51:58.466Z,28.23
2018-03-31T12:54:32.453Z,27.13
2018-03-31T12:57:06.818Z,29.37
2018-03-31T12:59:40.908Z,33.45
2018-03-31T13:02:14.890Z,26.03
2018-03-31T13:04:49.194Z,28.10
2018-03-31T13:07:23.171Z,25.50
2018-03-31T13:09:57.592Z,26.80
2018-03-31T13:12:31.898Z,24.92
2018-03-31T13:15:05.295Z,24.20
2018-03-31T13:17:39.342Z,27.40
2018-03-31T13:20:13.283Z,27.70
2018-03-31T13:22:48.317Z,29.23
2018-03-31T13:25:22.398Z,28.20
2018-03-31T13:27:56.938Z,29.70
2018-03-31T13:30:31.368Z,26.13
2018-03-31T13:33:05.180Z,32.27
2018-03-31T13:35:39.692Z,33.17
2018-03-31T13:38:13.803Z,32.78
2018-03-31T13:40:47.710Z,32.43
2018-03-31T13:43:21.945Z,30.02
2018-03-31T13:45:55.935Z,34.90
2018-03-31T13:48:29.660Z,35.17
2018-03-31T13:51:04.062Z,32.27
2018-03-31T13:53:37.957Z,37.08
2018-03-31T13:56:12.068Z,28.83
2018-03-31T13:58:46.658Z,34.00
2018-03-31T14:01:20.606Z,25.60
2018-03-31T14:03:54.302Z,32.20
2018-03-31T14:06:28.290Z,36.93
2018-03-31T14:09:02.274Z,29.70
2018-03-31T14:11:36.030Z,29.30
2018-03-31T14:14:09.917Z,30.35
2018-03-31T14:16:43.625Z,30.87
2018-03-31T14:19:17.674Z,30.57
2018-03-31T14:21:51.527Z,32.40
2018-03-31T14:24:25.370Z,32.73
2018-03-31T14:26:59.327Z,30.30
2018-03-31T14:29:33.447Z,31.10
2018-03-31T14:32:07.348Z,32.80
2018-03-31T14:34:41.235Z,27.52
2018-03-31T14:37:15.243Z,26.67
2018-03-31T14:39:49.598Z,39.80
2018-03-31T14:42:23.156Z,49.13
2018-03-31T14:44:57.566Z,50.07
2018-03-31T14:47:31.520Z,44.43
2018-03-31T14:50:05.129Z,49.77
2018-03-31T14:52:39.344Z,45.17
2018-03-31T14:55:13.615Z,39.73
2018-03-31T14:57:47.166Z,40.25
2018-03-31T15:00:21.277Z,35.23
2018-03-31T15:02:54.878Z,38.87
2018-03-31T15:05:29.095Z,32.33
2018-03-31T15:08:02.362Z,33.70
2018-03-31T15:10:35.683Z,32.97
2018-03-31T15:13:09.691Z,34.53
2018-03-31T15:15:43.893Z,43.63
2018-03-31T15:18:17.783Z,44.23
2018-03-31T15:20:52.134Z,39.38
2018-03-31T15:23:25.786Z,38.83
2018-03-31T15:25:59.730Z,41.93
2018-03-31T15:28:33.599Z,40.73
2018-03-31T15:31:07.289Z,42.13
2018-03-31T15:33:41.325Z,40.20
2018-03-31T15:36:16.341Z,47.57
2018-03-31T15:38:49.707Z,41.17
2018-03-31T15:41:23.706Z,43.23
2018-03-31T15:43:57.746Z,44.17
2018-03-31T15:46:31.622Z,35.00
2018-03-31T15:49:04.897Z,35.00
2018-03-31T15:51:39.412Z,31.02
2018-03-31T15:54:12.779Z,31.97
2018-03-31T15:56:46.408Z,25.50
2018-03-31T15:59:19.768Z,24.07
2018-03-31T16:01:54.085Z,32.90
2018-03-31T16:04:28.380Z,30.12
2018-03-31T16:07:02.659Z,22.73
2018-03-31T16:09:36.878Z,26.30
2018-03-31T16:12:11.250Z,29.02
2018-03-31T16:14:45.438Z,23.45
2018-03-31T16:17:19.304Z,29.45
2018-03-31T16:19:53.302Z,28.07
2018-03-31T16:22:27.483Z,25.67
2018-03-31T16:25:01.456Z,26.80
2018-03-31T16:27:35.450Z,26.03
2018-03-31T16:30:09.650Z,23.93
2018-03-31T16:32:43.714Z,24.40
2018-03-31T16:35:17.708Z,21.50
2018-03-31T16:37:51.840Z,25.57
2018-03-31T16:40:26.017Z,20.20
2018-03-31T16:42:59.598Z,23.33
2018-03-31T16:45:33.396Z,24.47
2018-03-31T16:48:07.371Z,24.37
2018-03-31T16:50:41.459Z,26.07
2018-03-31T16:53:15.453Z,28.63
2018-03-31T16:55:49.619Z,31.47
2018-03-31T16:58:23.807Z,25.60
2018-03-31T17:00:58.070Z,28.73
2018-03-31T17:03:32.062Z,23.10
2018-03-31T17:06:06.456Z,24.60
2018-03-31T17:08:39.970Z,26.43
2018-03-31T17:13:53.482Z,25.57
2018-03-31T17:16:27.271Z,27.50
2018-03-31T17:19:00.647Z,31.40
2018-03-31T17:21:34.694Z,25.73
2018-03-31T17:24:08.531Z,29.40
2018-03-31T17:26:42.986Z,33.27
2018-03-31T17:29:17.501Z,27.77
2018-03-31T17:31:51.515Z,27.93
2018-03-31T17:34:25.715Z,31.80
2018-03-31T17:36:59.727Z,28.70
2018-03-31T17:39:33.942Z,22.53
2018-03-31T17:42:07.775Z,25.40
2018-03-31T17:44:42.060Z,40.57
2018-03-31T17:47:15.652Z,35.03
2018-03-31T17:49:49.843Z,71.53
2018-03-31T17:52:23.683Z,45.10
2018-03-31T17:54:57.806Z,29.20
2018-03-31T17:57:32.074Z,51.60
2018-03-31T18:00:05.658Z,29.27
2018-03-31T18:02:39.647Z,34.92
2018-03-31T18:05:13.315Z,40.53
2018-03-31T18:07:47.882Z,77.50
2018-03-31T18:10:21.619Z,41.43
2018-03-31T18:12:55.703Z,37.50
2018-03-31T18:15:29.595Z,31.17
2018-03-31T18:18:03.693Z,19.83
2018-03-31T18:20:37.945Z,20.65
2018-03-31T18:23:11.686Z,185.57
2018-03-31T18:25:45.859Z,68.15
2018-03-31T18:28:19.749Z,93.73
2018-03-31T18:30:53.847Z,141.10
2018-03-31T18:33:27.674Z,84.33
2018-03-31T18:36:01.605Z,73.37
2018-03-31T18:38:35.166Z,56.63
2018-03-31T18:41:09.269Z,58.00
2018-03-31T18:43:43.735Z,40.40
2018-03-31T18:46:17.768Z,76.93
2018-03-31T18:48:51.963Z,58.67
2018-03-31T18:51:25.767Z,102.40
2018-03-31T18:53:59.989Z,77.17
2018-03-31T18:56:34.214Z,80.83
2018-03-31T18:59:08.637Z,102.68
2018-03-31T19:01:42.839Z,50.70
2018-03-31T19:04:17.021Z,65.27
2018-03-31T19:06:50.890Z,194.30
2018-03-31T19:09:24.770Z,78.77
2018-03-31T19:11:59.039Z,74.30
2018-03-31T19:14:32.787Z,71.73
2018-03-31T19:17:12.088Z,180.77
2018-03-31T19:19:45.943Z,67.70
2018-03-31T19:22:19.913Z,83.30
2018-03-31T19:24:59.473Z,162.87
2018-03-31T19:27:33.674Z,86.70
2018-03-31T19:30:07.809Z,126.73
2018-03-31T19:32:42.609Z,71.80
2018-03-31T19:35:16.770Z,59.07
2018-03-31T19:37:50.662Z,78.37
2018-03-31T19:40:24.659Z,49.60
2018-03-31T19:42:59.698Z,56.87
2018-03-31T19:45:33.189Z,121.87
2018-03-31T19:48:07.162Z,72.37
2018-03-31T19:50:40.763Z,115.32
2018-03-31T19:53:14.831Z,92.30
2018-03-31T19:55:49.095Z,77.95
2018-03-31T19:58:22.976Z,45.73
2018-03-31T20:00:57.009Z,47.97
2018-03-31T20:03:32.174Z,42.30
2018-03-31T20:06:05.966Z,37.53
2018-03-31T20:08:39.919Z,60.67
2018-03-31T20:11:13.917Z,82.97
2018-03-31T20:13:48.370Z,91.77
2018-03-31T20:16:22.063Z,61.10
2018-03-31T20:18:56.437Z,81.27
2018-03-31T20:21:30.484Z,70.30
2018-03-31T20:24:04.393Z,91.30
2018-03-31T20:26:38.224Z,57.40
2018-03-31T20:29:12.017Z,51.13
2018-03-31T20:31:46.470Z,55.88
2018-03-31T20:34:20.223Z,72.00
2018-03-31T20:36:53.870Z,77.60
2018-03-31T20:39:28.182Z,77.40
2018-03-31T20:42:02.195Z,116.90
2018-03-31T20:44:36.187Z,80.80
2018-03-31T20:47:10.375Z,114.37
2018-03-31T20:49:44.558Z,104.15
2018-03-31T20:52:18.155Z,93.70
2018-03-31T20:54:52.150Z,71.77
2018-03-31T20:57:26.076Z,57.00
2018-03-31T20:59:59.862Z,70.90
2018-03-31T21:02:33.495Z,65.20
2018-03-31T21:05:07.869Z,48.83
2018-03-31T21:07:42.316Z,40.47
2018-03-31T21:10:16.186Z,47.17
2018-03-31T21:12:50.140Z,44.97
2018-03-31T21:15:24.147Z,44.77
2018-03-31T21:17:58.158Z,48.97
2018-03-31T21:20:32.561Z,50.37
2018-03-31T21:23:06.239Z,47.03
2018-03-31T21:25:40.330Z,47.90
2018-03-31T21:28:14.194Z,44.47
2018-03-31T21:30:48.310Z,49.23
2018-03-31T21:33:22.037Z,47.17
2018-03-31T21:35:56.007Z,50.70
2018-03-31T21:38:30.031Z,54.70
2018-03-31T21:41:03.322Z,48.33
2018-03-31T21:43:37.635Z,52.03
2018-03-31T21:46:12.138Z,55.60
2018-03-31T21:48:46.525Z,58.17
2018-03-31T21:51:20.202Z,61.03
2018-03-31T21:53:54.073Z,56.20
2018-03-31T21:56:28.216Z,55.47
2018-03-31T21:59:01.535Z,55.37
2018-03-31T22:01:35.602Z,51.03
2018-03-31T22:04:09.351Z,52.73
2018-03-31T22:06:43.643Z,53.60
2018-03-31T22:09:17.652Z,58.57
2018-03-31T22:11:51.266Z,53.90
2018-03-31T22:14:30.707Z,52.73
2018-03-31T22:17:04.270Z,55.20
2018-03-31T22:19:38.558Z,50.37
2018-03-31T22:22:12.322Z,51.50
2018-03-31T22:24:46.394Z,56.23
2018-03-31T22:27:20.264Z,50.97
2018-03-31T22:29:54.237Z,60.70
2018-03-31T22:32:28.249Z,63.07
2018-03-31T22:35:02.111Z,55.17
2018-03-31T22:37:36.382Z,49.88
2018-03-31T22:40:09.770Z,59.07
2018-03-31T22:42:43.554Z,100.72
2018-03-31T22:45:17.348Z,112.33
2018-03-31T22:47:51.292Z,68.33
2018-03-31T22:50:25.063Z,74.33
2018-03-31T22:52:59.214Z,60.27
2018-03-31T22:55:33.601Z,88.73
2018-03-31T22:58:07.443Z,65.30
2018-03-31T23:00:40.741Z,85.20
2018-03-31T23:03:15.256Z,60.47
2018-03-31T23:05:48.837Z,58.57
2018-03-31T23:08:23.233Z,55.00
2018-03-31T23:10:57.293Z,53.37
2018-03-31T23:13:32.636Z,47.86
2018-03-31T23:16:06.501Z,50.30
2018-03-31T23:18:44.743Z,52.70
2018-03-31T23:21:18.434Z,46.87
2018-03-31T23:23:52.534Z,52.57
2018-03-31T23:26:26.738Z,50.03
2018-03-31T23:29:00.511Z,45.23
2018-03-31T23:31:34.706Z,45.10
2018-03-31T23:34:08.814Z,55.33
2018-03-31T23:36:42.634Z,51.43
2018-03-31T23:39:16.409Z,53.00
2018-03-31T23:41:50.670Z,49.73
2018-03-31T23:44:24.399Z,57.10
2018-03-31T23:46:58.445Z,69.67
2018-03-31T23:49:32.718Z,69.03
2018-03-31T23:52:06.446Z,55.60
2018-03-31T23:54:39.806Z,55.60
2018-03-31T23:57:13.421Z,56.00
2018-03-31T23:59:47.626Z,58.20
